createdAt,value
2017-10-26T00:00:27.883Z,50.00
2017-10-26T00:03:01.151Z,49.75
2017-10-26T00:05:35.014Z,50.75
2017-10-26T00:08:08.187Z,49.50
2017-10-26T00:10:43.709Z,48.25
2017-10-26T00:13:46.725Z,49.50
2017-10-26T00:16:44.612Z,55.50
2017-10-26T00:19:34.882Z,52.25
2017-10-26T00:22:18.111Z,43.25
2017-10-26T00:24:52.104Z,52.25
2017-10-26T00:27:49.945Z,48.25
2017-10-26T00:30:25.195Z,51.75
2017-10-26T00:32:59.406Z,40.75
2017-10-26T00:35:31.905Z,48.75
2017-10-26T00:38:15.547Z,47.50
2017-10-26T00:40:49.108Z,51.50
2017-10-26T00:43:23.011Z,46.00
2017-10-26T00:45:57.087Z,53.75
2017-10-26T00:48:30.659Z,55.50
2017-10-26T00:51:03.024Z,46.75
2017-10-26T00:53:35.020Z,49.00
2017-10-26T00:59:02.007Z,50.25
2017-10-26T01:01:34.579Z,52.25
2017-10-26T01:09:45.108Z,47.00
2017-10-26T01:12:18.892Z,47.75
2017-10-26T01:14:50.618Z,44.25
2017-10-26T01:20:25.724Z,46.25
2017-10-26T01:29:44.397Z,46.00
2017-10-26T01:32:53.607Z,48.25
2017-10-26T01:35:29.917Z,52.25
2017-10-26T01:38:06.585Z,44.50
2017-10-26T01:40:40.228Z,45.75
2017-10-26T01:43:20.705Z,43.50
2017-10-26T01:46:10.254Z,49.00
2017-10-26T01:48:47.905Z,55.50
2017-10-26T01:54:04.562Z,44.75
2017-10-26T01:56:40.342Z,50.50
2017-10-26T01:59:19.426Z,41.25
2017-10-26T02:01:54.123Z,43.75
2017-10-26T02:04:27.634Z,42.25
2017-10-26T02:07:06.964Z,47.00
2017-10-26T02:09:45.188Z,44.00
2017-10-26T02:12:31.042Z,45.25
2017-10-26T02:18:02.798Z,43.25
2017-10-26T02:20:44.829Z,40.50
2017-10-26T02:23:31.318Z,40.25
2017-10-26T02:26:27.487Z,46.75
2017-10-26T02:32:27.247Z,42.25
2017-10-26T02:38:10.891Z,41.50
2017-10-26T02:41:13.052Z,43.25
2017-10-26T02:43:48.620Z,46.00
2017-10-26T02:46:40.217Z,47.25
2017-10-26T02:49:45.219Z,47.00
2017-10-26T02:52:22.344Z,46.00
2017-10-26T02:55:01.080Z,44.00
2017-10-26T02:57:42.943Z,45.75
2017-10-26T03:00:22.713Z,42.25
2017-10-26T03:03:02.012Z,44.00
2017-10-26T03:05:47.614Z,49.50
2017-10-26T03:08:36.323Z,45.00
2017-10-26T03:11:14.540Z,52.50
2017-10-26T03:14:10.301Z,46.00
2017-10-26T03:16:48.661Z,46.00
2017-10-26T03:19:24.421Z,50.00
2017-10-26T03:21:57.712Z,46.00
2017-10-26T03:24:28.841Z,47.75
2017-10-26T03:27:03.106Z,50.50
2017-10-26T03:29:35.695Z,47.25
2017-10-26T03:32:08.130Z,55.50
2017-10-26T03:34:47.510Z,50.00
2017-10-26T03:37:28.604Z,51.75
2017-10-26T03:40:07.635Z,45.75
2017-10-26T03:42:45.286Z,46.75
2017-10-26T03:45:23.542Z,54.75
2017-10-26T03:48:02.877Z,46.50
2017-10-26T03:50:37.952Z,45.75
2017-10-26T03:53:14.614Z,49.00
2017-10-26T03:58:30.112Z,46.25
2017-10-26T04:01:11.298Z,49.50
2017-10-26T04:03:51.922Z,44.75
2017-10-26T04:06:27.403Z,40.75
2017-10-26T04:09:11.103Z,48.50
2017-10-26T04:11:58.513Z,48.25
2017-10-26T04:14:31.809Z,46.00
2017-10-26T04:17:06.520Z,53.00
2017-10-26T04:19:39.516Z,45.00
2017-10-26T04:22:12.920Z,51.00
2017-10-26T04:24:51.236Z,50.25
2017-10-26T04:27:48.465Z,50.00
2017-10-26T04:30:28.335Z,47.75
2017-10-26T04:33:09.853Z,46.75
2017-10-26T04:35:45.206Z,52.00
2017-10-26T04:38:18.885Z,51.00
2017-10-26T04:40:52.091Z,46.00
2017-10-26T04:43:27.384Z,52.50
2017-10-26T04:46:00.592Z,41.75
2017-10-26T04:48:33.185Z,46.00
2017-10-26T04:51:06.302Z,49.00
2017-10-26T04:53:40.702Z,49.50
2017-10-26T04:56:16.581Z,50.00
2017-10-26T04:58:49.109Z,51.25
2017-10-26T05:01:30.940Z,51.75
2017-10-26T05:04:19.224Z,42.50
2017-10-26T05:06:53.718Z,48.25
2017-10-26T05:09:27.531Z,50.75
2017-10-26T05:12:01.032Z,52.50
2017-10-26T05:20:00.935Z,51.75
2017-10-26T05:22:34.231Z,49.00
2017-10-26T05:28:08.645Z,46.25
2017-10-26T05:30:42.525Z,45.75
2017-10-26T05:33:34.669Z,47.00
2017-10-26T05:36:26.522Z,51.75
2017-10-26T05:39:07.001Z,51.25
2017-10-26T05:41:43.945Z,48.25
2017-10-26T05:44:17.305Z,50.50
2017-10-26T05:54:41.801Z,59.25
2017-10-26T05:57:15.437Z,63.00
2017-10-26T05:59:48.402Z,63.50
2017-10-26T06:02:33.755Z,56.75
2017-10-26T06:05:08.651Z,55.00
2017-10-26T06:07:40.897Z,55.25
2017-10-26T06:13:32.229Z,56.50
2017-10-26T06:16:12.842Z,49.00
2017-10-26T06:24:02.933Z,50.25
2017-10-26T06:26:36.874Z,54.25
2017-10-26T06:29:12.659Z,46.25
2017-10-26T06:31:48.038Z,48.25
2017-10-26T06:34:24.733Z,54.00
2017-10-26T06:37:15.737Z,53.50
2017-10-26T06:39:48.738Z,47.50
2017-10-26T06:42:23.558Z,52.00
2017-10-26T06:45:00.035Z,51.00
2017-10-26T06:47:47.716Z,57.25
2017-10-26T06:50:27.830Z,57.50
2017-10-26T06:53:10.384Z,54.00
2017-10-26T06:55:46.167Z,50.25
2017-10-26T06:58:43.703Z,51.25
2017-10-26T07:01:25.776Z,49.25
2017-10-26T07:04:07.001Z,52.00
2017-10-26T07:06:43.197Z,44.00
2017-10-26T07:09:21.805Z,51.75
2017-10-26T07:11:56.252Z,47.75
2017-10-26T07:14:31.224Z,50.50
2017-10-26T08:02:58.775Z,47.00
2017-10-26T08:05:38.118Z,50.50
2017-10-26T08:08:17.232Z,54.00
2017-10-26T08:10:54.207Z,54.75
2017-10-26T08:13:36.833Z,50.25
2017-10-26T08:16:14.535Z,48.50
2017-10-26T08:19:03.443Z,44.25
2017-10-26T08:21:47.802Z,43.25
2017-10-26T08:24:39.361Z,43.50
2017-10-26T08:27:18.943Z,41.00
2017-10-26T08:29:54.480Z,32.25
2017-10-26T08:32:35.296Z,38.50
2017-10-26T08:35:16.626Z,37.25
2017-10-26T08:38:04.729Z,37.75
2017-10-26T08:40:40.291Z,27.25
2017-10-26T08:43:32.277Z,34.00
2017-10-26T08:46:12.759Z,25.50
2017-10-26T08:51:56.557Z,25.75
2017-10-26T08:54:57.242Z,24.00
2017-10-26T08:57:45.889Z,20.75
2017-10-26T09:00:30.179Z,23.00
2017-10-26T09:03:17.000Z,18.50
2017-10-26T09:06:01.644Z,21.50
2017-10-26T09:08:44.306Z,23.50
2017-10-26T09:11:42.094Z,25.25
2017-10-26T09:14:35.843Z,25.75
2017-10-26T09:17:13.744Z,22.25
2017-10-26T09:19:51.625Z,24.50
2017-10-26T09:22:36.279Z,24.25
2017-10-26T09:25:39.918Z,21.00
2017-10-26T09:28:14.215Z,22.75
2017-10-26T09:30:53.814Z,25.00
2017-10-26T09:33:39.211Z,23.50
2017-10-26T09:36:16.644Z,23.50
2017-10-26T09:38:53.814Z,22.50
2017-10-26T09:41:38.097Z,23.25
2017-10-26T09:48:15.555Z,21.50
2017-10-26T09:51:04.568Z,21.00
2017-10-26T09:53:49.179Z,22.25
2017-10-26T09:59:04.734Z,24.50
2017-10-26T10:01:41.083Z,25.75
2017-10-26T10:04:16.215Z,23.00
2017-10-26T10:07:07.671Z,23.25
2017-10-26T10:09:44.068Z,24.00
2017-10-26T10:12:19.096Z,30.25
2017-10-26T10:17:56.046Z,25.50
2017-10-26T10:20:47.288Z,23.50
2017-10-26T10:26:50.628Z,21.75
2017-10-26T10:29:33.118Z,22.75
2017-10-26T10:32:08.126Z,20.25
2017-10-26T10:35:02.896Z,24.50
2017-10-26T10:37:44.224Z,18.00
2017-10-26T10:40:34.130Z,34.25
2017-10-26T10:46:12.128Z,24.25
2017-10-26T10:49:06.375Z,23.50
2017-10-26T10:51:43.140Z,21.75
2017-10-26T10:54:23.857Z,24.00
2017-10-26T10:57:06.879Z,23.50
2017-10-26T10:59:53.939Z,27.50
2017-10-26T11:08:41.676Z,23.25
2017-10-26T11:11:14.953Z,19.25
2017-10-26T11:13:48.240Z,21.00
2017-10-26T11:16:27.879Z,21.25
2017-10-26T11:22:06.033Z,24.00
2017-10-26T11:24:45.818Z,21.00
2017-10-26T11:30:15.080Z,22.75
2017-10-26T11:35:39.001Z,21.00
2017-10-26T11:38:12.725Z,29.00
2017-10-26T11:40:47.591Z,23.75
2017-10-26T11:43:28.253Z,23.75
2017-10-26T11:49:30.769Z,33.25
2017-10-26T11:52:13.531Z,23.00
2017-10-26T11:54:53.626Z,26.75
2017-10-26T11:57:28.503Z,24.75
2017-10-26T12:00:17.995Z,24.50
2017-10-26T12:02:56.347Z,23.25
2017-10-26T12:05:32.688Z,24.00
2017-10-26T12:08:26.093Z,32.00
2017-10-26T12:11:09.129Z,24.00
2017-10-26T12:15:05.676Z,22.00
2017-10-26T12:17:51.519Z,24.75
2017-10-26T12:20:29.419Z,25.75
2017-10-26T12:23:50.033Z,21.00
2017-10-26T12:27:38.922Z,20.75
2017-10-26T12:30:17.215Z,21.50
2017-10-26T12:45:23.158Z,22.00
2017-10-26T12:48:14.845Z,22.25
2017-10-26T12:50:52.334Z,20.50
2017-10-26T12:53:27.521Z,19.25
2017-10-26T12:58:41.396Z,16.25
2017-10-26T13:01:16.328Z,14.50
2017-10-26T13:03:48.826Z,18.75
2017-10-26T13:06:22.730Z,19.50
2017-10-26T13:08:59.739Z,18.25
2017-10-26T13:11:38.411Z,18.75
2017-10-26T13:14:14.422Z,17.00
2017-10-26T13:16:59.242Z,17.00
2017-10-26T13:19:33.762Z,15.00
2017-10-26T13:22:14.440Z,17.25
2017-10-26T13:25:09.744Z,17.00
2017-10-26T13:27:43.453Z,14.75
2017-10-26T13:30:20.560Z,19.00
2017-10-26T13:33:01.044Z,19.75
2017-10-26T13:35:33.645Z,18.00
2017-10-26T13:38:11.747Z,21.00
2017-10-26T13:40:58.942Z,19.50
2017-10-26T13:43:50.326Z,19.00
2017-10-26T13:46:24.730Z,19.00
2017-10-26T13:49:10.261Z,20.00
2017-10-26T13:51:43.617Z,19.25
2017-10-26T13:54:15.937Z,23.50
2017-10-26T13:57:02.019Z,26.25
2017-10-26T13:59:36.334Z,21.50
2017-10-26T14:02:10.808Z,20.00
2017-10-26T14:04:50.073Z,25.50
2017-10-26T14:08:17.977Z,24.50
2017-10-26T14:10:51.085Z,24.00
2017-10-26T14:13:24.801Z,24.25
2017-10-26T14:15:58.381Z,23.75
2017-10-26T14:18:32.453Z,22.75
2017-10-26T14:21:08.021Z,23.25
2017-10-26T14:23:41.272Z,27.00
2017-10-26T14:26:13.985Z,27.25
2017-10-26T14:28:47.726Z,28.00
2017-10-26T14:31:25.607Z,24.50
2017-10-26T14:33:59.367Z,27.00
2017-10-26T14:36:33.604Z,27.00
2017-10-26T14:39:07.536Z,30.00
2017-10-26T14:41:39.985Z,25.25
2017-10-26T14:44:16.591Z,29.75
2017-10-26T14:46:50.004Z,26.50
2017-10-26T14:52:07.830Z,28.00
2017-10-26T14:54:43.633Z,27.75
2017-10-26T14:57:20.507Z,27.00
2017-10-26T14:59:53.650Z,28.00
2017-10-26T15:02:31.112Z,31.00
2017-10-26T15:09:15.537Z,42.50
2017-10-26T15:11:49.020Z,35.75
2017-10-26T15:14:27.777Z,28.50
2017-10-26T15:17:04.839Z,26.00
2017-10-26T15:19:52.001Z,72.50
2017-10-26T15:22:25.891Z,34.50
2017-10-26T15:25:11.355Z,26.00
2017-10-26T15:27:43.881Z,29.25
2017-10-26T15:30:28.409Z,25.00
2017-10-26T15:36:20.283Z,25.00
2017-10-26T15:38:52.970Z,25.00
2017-10-26T15:41:27.667Z,25.75
2017-10-26T15:44:01.662Z,24.75
2017-10-26T15:46:44.125Z,23.50
2017-10-26T15:49:17.485Z,24.00
2017-10-26T15:51:51.360Z,22.75
2017-10-26T15:54:24.250Z,28.00
2017-10-26T15:56:59.059Z,32.00
2017-10-26T15:59:32.008Z,26.75
2017-10-26T16:02:06.765Z,27.75
2017-10-26T16:04:39.556Z,29.75
2017-10-26T16:07:33.618Z,31.50
2017-10-26T16:10:06.257Z,36.50
2017-10-26T16:12:39.255Z,31.50
2017-10-26T16:15:14.733Z,33.25
2017-10-26T16:17:51.438Z,36.00
2017-10-26T16:20:23.943Z,33.00
2017-10-26T16:22:59.532Z,34.25
2017-10-26T16:25:39.276Z,37.00
2017-10-26T16:28:12.830Z,39.50
2017-10-26T16:33:24.565Z,44.00
2017-10-26T16:35:57.405Z,55.00
2017-10-26T16:38:29.903Z,38.00
2017-10-26T16:41:02.196Z,35.25
2017-10-26T16:43:35.148Z,40.75
2017-10-26T16:46:13.514Z,48.25
2017-10-26T16:48:45.494Z,40.00
2017-10-26T16:51:19.686Z,36.50
2017-10-26T16:53:51.906Z,37.00
2017-10-26T16:56:24.630Z,34.25
2017-10-26T16:58:57.096Z,28.25
2017-10-26T17:01:30.594Z,31.25
2017-10-26T17:04:02.688Z,36.25
2017-10-26T17:06:35.323Z,32.50
2017-10-26T17:09:08.481Z,38.00
2017-10-26T17:11:40.803Z,40.50
2017-10-26T17:14:12.974Z,46.00
2017-10-26T17:16:45.564Z,47.00
2017-10-26T17:22:08.413Z,38.75
2017-10-26T17:24:40.596Z,43.50
2017-10-26T17:27:13.195Z,39.75
2017-10-26T17:29:46.676Z,47.50
2017-10-26T17:32:21.015Z,52.75
2017-10-26T17:34:56.044Z,56.25
2017-10-26T17:37:28.029Z,63.00
2017-10-26T17:40:01.804Z,52.75
2017-10-26T17:42:34.423Z,50.00
2017-10-26T17:45:21.825Z,53.25
2017-10-26T17:48:12.818Z,42.00
2017-10-26T17:50:44.970Z,50.25
2017-10-26T17:53:36.761Z,45.50
2017-10-26T18:09:07.557Z,43.50
2017-10-26T18:11:49.168Z,42.75
2017-10-26T18:14:22.969Z,49.50
2017-10-26T18:16:57.063Z,43.00
2017-10-26T18:19:44.541Z,47.25
2017-10-26T18:22:32.466Z,37.25
2017-10-26T18:25:05.018Z,48.25
2017-10-26T18:27:38.735Z,44.25
2017-10-26T18:30:20.566Z,48.50
2017-10-26T18:32:52.557Z,37.50
2017-10-26T18:35:30.083Z,33.50
2017-10-26T18:38:03.060Z,30.50
2017-10-26T18:40:35.161Z,27.50
2017-10-26T18:43:07.659Z,24.00
2017-10-26T18:45:58.208Z,27.25
2017-10-26T18:48:48.579Z,24.50
2017-10-26T18:51:22.285Z,31.25
2017-10-26T18:53:55.150Z,24.25
2017-10-26T18:56:29.360Z,27.00
2017-10-26T18:59:03.274Z,32.75
2017-10-26T19:01:37.354Z,35.00
2017-10-26T19:04:11.614Z,26.00
2017-10-26T19:06:44.995Z,38.75
2017-10-26T19:09:19.815Z,36.25
2017-10-26T19:11:52.584Z,34.25
2017-10-26T19:14:27.659Z,41.75
2017-10-26T19:17:03.071Z,35.25
2017-10-26T19:19:36.854Z,33.00
2017-10-26T19:22:11.183Z,38.00
2017-10-26T19:24:43.791Z,41.25
2017-10-26T19:27:21.908Z,41.25
2017-10-26T19:29:54.879Z,43.50
2017-10-26T19:32:45.515Z,43.50
2017-10-26T19:38:41.785Z,38.25
2017-10-26T19:41:14.965Z,43.25
2017-10-26T19:43:49.199Z,32.50
2017-10-26T19:49:02.847Z,32.50
2017-10-26T19:51:35.483Z,36.00
2017-10-26T19:54:08.756Z,28.00
2017-10-26T19:56:43.450Z,32.50
2017-10-26T19:59:47.754Z,37.75
2017-10-26T20:02:22.457Z,39.75
2017-10-26T20:04:56.710Z,41.75
2017-10-26T20:07:34.417Z,35.75
2017-10-26T20:10:09.664Z,39.25
2017-10-26T20:12:41.893Z,38.50
2017-10-26T20:15:20.695Z,37.00
2017-10-26T20:18:06.151Z,41.25
2017-10-26T20:21:32.452Z,40.00
2017-10-26T20:24:07.898Z,39.50
2017-10-26T20:26:50.405Z,33.75
2017-10-26T20:29:26.018Z,42.50
2017-10-26T20:32:07.533Z,40.25
2017-10-26T20:34:41.946Z,45.50
2017-10-26T20:37:14.635Z,34.75
2017-10-26T20:39:47.622Z,45.00
2017-10-26T20:42:22.448Z,44.25
2017-10-26T20:44:57.786Z,45.00
2017-10-26T20:47:32.234Z,44.25
2017-10-26T20:50:18.160Z,41.25
2017-10-26T20:55:02.704Z,47.75
2017-10-26T20:59:48.222Z,47.25
2017-10-26T21:04:27.017Z,44.00
2017-10-26T21:07:13.399Z,37.75
2017-10-26T21:09:50.609Z,38.00
2017-10-26T21:13:31.219Z,38.25
2017-10-26T21:16:14.334Z,31.25
2017-10-26T21:18:49.042Z,30.50
2017-10-26T21:21:25.661Z,26.50
2017-10-26T21:23:58.835Z,25.50
2017-10-26T21:26:31.292Z,24.75
2017-10-26T21:29:42.855Z,31.00
2017-10-26T21:32:48.943Z,28.00
2017-10-26T21:35:26.724Z,23.75
2017-10-26T21:37:58.948Z,25.00
2017-10-26T21:40:47.446Z,24.25
2017-10-26T21:43:40.910Z,24.75
2017-10-26T21:46:18.244Z,25.25
2017-10-26T21:48:51.556Z,25.00
2017-10-26T21:51:27.143Z,23.25
2017-10-26T21:54:03.053Z,27.00
2017-10-26T21:56:35.770Z,22.00
2017-10-26T21:59:09.359Z,22.50
2017-10-26T22:01:42.877Z,23.50
2017-10-26T22:04:17.061Z,23.50
2017-10-26T22:06:51.336Z,26.00
2017-10-26T22:09:33.308Z,19.25
2017-10-26T22:12:07.513Z,20.25
2017-10-26T22:14:41.314Z,24.00
2017-10-26T22:17:15.142Z,25.75
2017-10-26T22:19:56.973Z,23.25
2017-10-26T22:22:30.153Z,27.75
2017-10-26T22:25:03.957Z,21.50
2017-10-26T22:27:37.663Z,24.00
2017-10-26T22:30:13.655Z,25.50
2017-10-26T22:32:47.468Z,20.75
2017-10-26T22:36:07.839Z,25.25
2017-10-26T22:38:40.994Z,23.00
2017-10-26T22:41:14.817Z,23.00
2017-10-26T22:43:46.842Z,25.25
2017-10-26T22:46:29.185Z,23.75
2017-10-26T22:49:02.641Z,26.25
2017-10-26T22:51:34.931Z,29.00
2017-10-26T22:54:08.078Z,25.25
2017-10-26T22:56:40.920Z,25.50
2017-10-26T22:59:14.165Z,30.75
2017-10-26T23:01:46.231Z,29.25
2017-10-26T23:04:19.525Z,29.75
2017-10-26T23:06:52.607Z,25.50
2017-10-26T23:09:27.935Z,30.00
2017-10-26T23:12:00.104Z,29.75
2017-10-26T23:14:32.533Z,30.00
2017-10-26T23:17:05.763Z,39.75
2017-10-26T23:19:39.036Z,32.25
2017-10-26T23:22:12.266Z,25.75
2017-10-26T23:24:45.114Z,31.00
2017-10-26T23:27:24.262Z,33.50
2017-10-26T23:29:57.262Z,31.75
2017-10-26T23:32:29.530Z,30.00
2017-10-26T23:35:02.345Z,30.00
2017-10-26T23:37:34.735Z,30.75
2017-10-26T23:42:46.754Z,35.50
2017-10-26T23:45:21.364Z,33.25
2017-10-26T23:47:53.339Z,32.00
2017-10-26T23:50:26.154Z,39.75
2017-10-26T23:53:01.952Z,37.00
2017-10-26T23:55:34.565Z,38.75
2017-10-26T23:58:07.057Z,42.00
